Cinderella 1 — SBLK — position and weather

sailwx.info

Track history (hours):
 
Tides and Currents Weather Stations Pressure Air Temp Water Temp Dewpoint Dewpoint Depression Visibility Wind Speed Wind Dir Waves Ship Positions

Cinderella 1

Last reported at 2014-Dec-27 10:10 UTC. Time now 2015-Jan-29 22:30 UTC.
Position N 59°24' E 018°22'.
Warning: this ship's position is 33 days out of date.

Length 42 m; draft 1.1 m.

Type: Passenger vessel. MMSI: 265524530.

Date/timePositionNaut miles runAvg speedWind from/ knotsBaromVisibWave heightAir tempDewpointWater temp
2014-Dec-27 10:10N 59°24' E 018°22'0 0.0
2014-Dec-26 03:31N 59°24' E 018°22'0 0.0
2014-Dec-26 02:29N 59°24' E 018°22'0 0.0
2014-Dec-26 01:33N 59°24' E 018°22'0 0.0
2014-Dec-25 06:13N 59°24' E 018°22'0 0.0
2014-Dec-25 04:30N 59°24' E 018°22'0 0.0
2014-Dec-24 23:20N 59°24' E 018°22'  
2014-Dec-20 05:34N 59°23' E 018°20'8 8.3
2014-Dec-20 04:33N 59°20' E 018°05'0 0.0
2014-Dec-20 03:33N 59°20' E 018°05'0 0.0
2014-Dec-20 02:33N 59°20' E 018°05'0 0.0
2014-Dec-20 01:33N 59°20' E 018°05'0 0.0
2014-Dec-20 00:33N 59°20' E 018°05'0 0.0
2014-Dec-19 23:33N 59°20' E 018°05'0 0.0
2014-Dec-19 22:33N 59°20' E 018°05'5 5.4
2014-Dec-19 21:33N 59°21' E 018°15'4 0.9
2014-Dec-19 17:32N 59°19' E 018°09'2 2.5
2014-Dec-19 16:33N 59°20' E 018°05'0 0.0
2014-Dec-19 15:33N 59°20' E 018°05'0 0.0
2014-Dec-19 14:33N 59°20' E 018°05'0 0.0
2014-Dec-19 13:33N 59°20' E 018°05'0 0.0
2014-Dec-19 12:33N 59°20' E 018°05'0 0.0
2014-Dec-19 11:32N 59°20' E 018°05'0 0.0
2014-Dec-19 10:33N 59°20' E 018°05'0 0.0
2014-Dec-19 09:33N 59°20' E 018°05'0 0.0
2014-Dec-19 08:33N 59°20' E 018°05'0 0.0
2014-Dec-19 07:33N 59°20' E 018°05'0 0.0
2014-Dec-19 06:33N 59°20' E 018°05'0 0.0
2014-Dec-19 05:34N 59°20' E 018°05'0 0.0
2014-Dec-19 04:34N 59°20' E 018°05'0 0.0
2014-Dec-19 03:33N 59°20' E 018°05'0 0.0
2014-Dec-19 02:33N 59°20' E 018°05'0 0.0
2014-Dec-19 01:33N 59°20' E 018°05'0 0.0
2014-Dec-19 00:33N 59°20' E 018°05'0 0.0
2014-Dec-18 23:33N 59°20' E 018°05'0 0.0
2014-Dec-18 22:33N 59°20' E 018°05'7 6.7
2014-Dec-18 21:33N 59°22' E 018°17'5 1.1
2014-Dec-18 17:33N 59°19' E 018°10'3 2.9
2014-Dec-18 16:33N 59°20' E 018°05'5 1.1
2014-Dec-18 12:31N 59°21' E 018°14'5 4.9
2014-Dec-18 11:33N 59°20' E 018°05'0 0.0
2014-Dec-18 10:34N 59°20' E 018°05'0 0.0
2014-Dec-18 09:34N 59°20' E 018°05'0 0.0
2014-Dec-18 08:34N 59°20' E 018°05'0 0.0
2014-Dec-18 07:34N 59°20' E 018°05'0 0.0
2014-Dec-18 06:34N 59°20' E 018°05'0 0.0
2014-Dec-18 05:34N 59°20' E 018°05'0 0.0
2014-Dec-18 04:34N 59°20' E 018°05'0 0.0
2014-Dec-18 03:34N 59°20' E 018°05'0 0.0
2014-Dec-18 02:33N 59°20' E 018°05'0 0.0
2014-Dec-18 01:34N 59°20' E 018°05'0 0.0
2014-Dec-18 00:34N 59°20' E 018°05'0 0.0
2014-Dec-17 23:34N 59°20' E 018°05'0 0.0
2014-Dec-17 22:33N 59°20' E 018°05'6 6.2
2014-Dec-17 21:32N 59°22' E 018°16'5 1.3
2014-Dec-17 17:33N 59°19' E 018°09'2 2.2
2014-Dec-17 16:33N 59°20' E 018°05'0 0.0
2014-Dec-17 15:33N 59°20' E 018°05'0 0.0
2014-Dec-17 14:32N 59°20' E 018°05'0 0.0
2014-Dec-17 13:32N 59°20' E 018°05'0 0.0
2014-Dec-17 12:33N 59°20' E 018°05'0 0.0
2014-Dec-17 11:32N 59°20' E 018°05'0 0.0
2014-Dec-17 10:33N 59°20' E 018°05'  
Track history (hours):
 
Tides and Currents Weather Stations Pressure Air Temp Water Temp Dewpoint Dewpoint Depression Visibility Wind Speed Wind Dir Waves Ship Positions

Cinderella 1

Last reported at 2014-Dec-27 10:10 UTC. Time now 2015-Jan-29 22:30 UTC.
Position N 59°24' E 018°22'.
Warning: this ship's position is 33 days out of date.

Length 42 m; draft 1.1 m.

Type: Passenger vessel. MMSI: 265524530.

Date/timePositionNaut miles runAvg speedWind from/ knotsBaromVisibWave heightAir tempDewpointWater temp
2014-Dec-27 10:10N 59°24' E 018°22'0 0.0
2014-Dec-26 03:31N 59°24' E 018°22'0 0.0
2014-Dec-26 02:29N 59°24' E 018°22'0 0.0
2014-Dec-26 01:33N 59°24' E 018°22'0 0.0
2014-Dec-25 06:13N 59°24' E 018°22'0 0.0
2014-Dec-25 04:30N 59°24' E 018°22'0 0.0
2014-Dec-24 23:20N 59°24' E 018°22'  
2014-Dec-20 05:34N 59°23' E 018°20'8 8.3
2014-Dec-20 04:33N 59°20' E 018°05'0 0.0
2014-Dec-20 03:33N 59°20' E 018°05'0 0.0
2014-Dec-20 02:33N 59°20' E 018°05'0 0.0
2014-Dec-20 01:33N 59°20' E 018°05'0 0.0
2014-Dec-20 00:33N 59°20' E 018°05'0 0.0
2014-Dec-19 23:33N 59°20' E 018°05'0 0.0
2014-Dec-19 22:33N 59°20' E 018°05'5 5.4
2014-Dec-19 21:33N 59°21' E 018°15'4 0.9
2014-Dec-19 17:32N 59°19' E 018°09'2 2.5
2014-Dec-19 16:33N 59°20' E 018°05'0 0.0
2014-Dec-19 15:33N 59°20' E 018°05'0 0.0
2014-Dec-19 14:33N 59°20' E 018°05'0 0.0
2014-Dec-19 13:33N 59°20' E 018°05'0 0.0
2014-Dec-19 12:33N 59°20' E 018°05'0 0.0
2014-Dec-19 11:32N 59°20' E 018°05'0 0.0
2014-Dec-19 10:33N 59°20' E 018°05'0 0.0
2014-Dec-19 09:33N 59°20' E 018°05'0 0.0
2014-Dec-19 08:33N 59°20' E 018°05'0 0.0
2014-Dec-19 07:33N 59°20' E 018°05'0 0.0
2014-Dec-19 06:33N 59°20' E 018°05'0 0.0
2014-Dec-19 05:34N 59°20' E 018°05'0 0.0
2014-Dec-19 04:34N 59°20' E 018°05'0 0.0
2014-Dec-19 03:33N 59°20' E 018°05'0 0.0
2014-Dec-19 02:33N 59°20' E 018°05'0 0.0
2014-Dec-19 01:33N 59°20' E 018°05'0 0.0
2014-Dec-19 00:33N 59°20' E 018°05'0 0.0
2014-Dec-18 23:33N 59°20' E 018°05'0 0.0
2014-Dec-18 22:33N 59°20' E 018°05'7 6.7
2014-Dec-18 21:33N 59°22' E 018°17'5 1.1
2014-Dec-18 17:33N 59°19' E 018°10'3 2.9
2014-Dec-18 16:33N 59°20' E 018°05'5 1.1
2014-Dec-18 12:31N 59°21' E 018°14'5 4.9
2014-Dec-18 11:33N 59°20' E 018°05'0 0.0
2014-Dec-18 10:34N 59°20' E 018°05'0 0.0
2014-Dec-18 09:34N 59°20' E 018°05'0 0.0
2014-Dec-18 08:34N 59°20' E 018°05'0 0.0
2014-Dec-18 07:34N 59°20' E 018°05'0 0.0
2014-Dec-18 06:34N 59°20' E 018°05'0 0.0
2014-Dec-18 05:34N 59°20' E 018°05'0 0.0
2014-Dec-18 04:34N 59°20' E 018°05'0 0.0
2014-Dec-18 03:34N 59°20' E 018°05'0 0.0
2014-Dec-18 02:33N 59°20' E 018°05'0 0.0
2014-Dec-18 01:34N 59°20' E 018°05'0 0.0
2014-Dec-18 00:34N 59°20' E 018°05'0 0.0
2014-Dec-17 23:34N 59°20' E 018°05'0 0.0
2014-Dec-17 22:33N 59°20' E 018°05'6 6.2
2014-Dec-17 21:32N 59°22' E 018°16'5 1.3
2014-Dec-17 17:33N 59°19' E 018°09'2 2.2
2014-Dec-17 16:33N 59°20' E 018°05'0 0.0
2014-Dec-17 15:33N 59°20' E 018°05'0 0.0
2014-Dec-17 14:32N 59°20' E 018°05'0 0.0
2014-Dec-17 13:32N 59°20' E 018°05'0 0.0
2014-Dec-17 12:33N 59°20' E 018°05'0 0.0
2014-Dec-17 11:32N 59°20' E 018°05'0 0.0
2014-Dec-17 10:33N 59°20' E 018°05'  

Dump ship's entire track history